Time;durP1;ratioP1;P1;durP2;ratioP2;P2;SDS_P1;SDS_P2;PMS_P1;PMS_P2;Temp;Humidity;BMP_temperature;BMP_pressure;BME280_temperature;BME280_humidity;BME280_pressure;Samples;Min_cycle;Max_cycle;Signal;HPM_P1;HPM_P2
2022/02/16 00:00:53;;;;;;;;;;;;;;;18.34;63.69;101263.34;5076835;28;1758;-32
2022/02/16 00:03:23;;;;;;;;;;;;;;;18.30;63.81;101278.78;5077087;28;1741;-33
2022/02/16 00:05:50;;;;;;;;;;;;;;;18.32;63.78;101262.63;5081469;28;1655;-33
2022/02/16 00:08:19;;;;;;;;;;;;;;;18.36;63.64;101274.78;5079009;28;1819;-33
2022/02/16 00:10:48;;;;;;;;;;;;;;;18.37;63.42;101268.47;5078222;28;1539;-34
2022/02/16 00:13:18;;;;;;;;;;;;;;;18.37;63.45;101252.41;5085656;28;1971;-33
2022/02/16 00:15:47;;;;;;;;;;;;;;;18.42;63.74;101266.28;5078751;28;1849;-33
2022/02/16 00:18:14;;;;;;;;;;;;;;;18.36;63.89;101270.28;5087628;28;1560;-33
2022/02/16 00:20:47;;;;;;;;;;;;;;;18.36;63.54;101266.75;5073119;28;1512;-32
2022/02/16 00:23:17;;;;;;;;;;;;;;;18.30;63.71;101276.13;5068166;28;1771;-33
2022/02/16 00:25:47;;;;;;;;;;;;;;;18.28;63.49;101281.63;5080417;28;1770;-32
2022/02/16 00:28:17;;;;;;;;;;;;;;;18.28;63.51;101281.63;5073279;28;1684;-33
2022/02/16 00:30:47;;;;;;;;;;;;;;;18.27;63.75;101268.34;5076274;28;1945;-33
2022/02/16 00:33:13;;;;;;;;;;;;;;;18.29;63.29;101267.25;5076925;28;1964;-32
2022/02/16 00:35:40;;;;;;;;;;;;;;;18.34;62.83;101276.75;5074946;28;1509;-32
2022/02/16 00:38:23;;;;;;;;;;;;;;;18.33;63.01;101251.81;5090871;28;1785;-33
2022/02/16 00:40:56;;;;;;;;;;;;;;;18.33;63.11;101267.03;5078039;28;1628;-33
2022/02/16 00:43:25;;;;;;;;;;;;;;;18.32;63.40;101259.94;5090435;28;1052;-32
2022/02/16 00:45:54;;;;;;;;;;;;;;;18.27;63.25;101263.84;5075245;28;1451;-33
2022/02/16 00:48:22;;;;;;;;;;;;;;;18.25;63.04;101262.25;5074801;28;1688;-33
2022/02/16 00:50:49;;;;;;;;;;;;;;;18.23;63.22;101261.53;5085042;28;1684;-32
2022/02/16 00:53:15;;;;;;;;;;;;;;;18.21;63.37;101264.31;5079623;28;1999;-33
2022/02/16 00:55:46;;;;;;;;;;;;;;;18.28;63.28;101265.56;5081929;28;1829;-32
2022/02/16 00:58:26;;;;;;;;;;;;;;;18.28;63.64;101260.19;5078360;28;2392;-33
2022/02/16 01:00:52;;;;;;;;;;;;;;;18.31;63.15;101266.28;5054341;28;1548;-33
2022/02/16 01:03:21;;;;;;;;;;;;;;;18.26;63.09;101262.16;5073449;28;1915;-32
2022/02/16 01:05:51;;;;;;;;;;;;;;;18.30;63.43;101254.69;5081000;28;1732;-32
2022/02/16 01:08:17;;;;;;;;;;;;;;;18.28;63.14;101265.56;5079100;28;1587;-33
2022/02/16 01:10:45;;;;;;;;;;;;;;;18.27;63.08;101261.16;5090173;28;1782;-32
2022/02/16 01:13:11;;;;;;;;;;;;;;;18.30;63.00;101246.66;5077456;28;1909;-32
2022/02/16 01:15:40;;;;;;;;;;;;;;;18.34;62.47;101247.28;5075585;28;1470;-33
2022/02/16 01:18:10;;;;;;;;;;;;;;;18.36;61.97;101234.63;5079327;28;1473;-32
2022/02/16 01:20:39;;;;;;;;;;;;;;;18.37;62.42;101245.22;5074696;28;1377;-33
2022/02/16 01:23:06;;;;;;;;;;;;;;;18.37;62.12;101241.72;5066575;28;1779;-32
2022/02/16 01:25:34;;;;;;;;;;;;;;;18.37;61.64;101244.38;5085375;28;1636;-32
2022/02/16 01:28:00;;;;;;;;;;;;;;;18.36;62.03;101234.63;5083488;28;1793;-33
2022/02/16 01:33:14;;;;;;;;;;;;;;;18.28;62.15;101222.72;5064013;28;2527;-32
2022/02/16 01:35:44;;;;;;;;;;;;;;;18.29;62.18;101234.28;5069366;28;1763;-33
2022/02/16 01:38:13;;;;;;;;;;;;;;;18.29;62.67;101231.59;5087354;28;1603;-33
2022/02/16 01:40:43;;;;;;;;;;;;;;;18.29;62.35;101229.75;5088167;28;1146;-33
2022/02/16 01:43:09;;;;;;;;;;;;;;;18.34;62.51;101228.53;5086699;28;1059;-32
2022/02/16 01:45:37;;;;;;;;;;;;;;;18.35;62.23;101227.59;5090388;28;1769;-33
2022/02/16 01:48:04;;;;;;;;;;;;;;;18.33;62.01;101206.28;5079046;28;1681;-33
2022/02/16 01:50:34;;;;;;;;;;;;;;;18.37;61.77;101229.16;5087545;28;1443;-33
2022/02/16 01:53:01;;;;;;;;;;;;;;;18.37;61.99;101221.13;5073594;28;1983;-35
2022/02/16 01:55:37;;;;;;;;;;;;;;;18.38;61.73;101208.59;5087884;28;1080;-33
2022/02/16 01:58:11;;;;;;;;;;;;;;;18.39;62.22;101213.00;5074052;28;1672;-33
2022/02/16 02:00:40;;;;;;;;;;;;;;;18.36;61.77;101219.41;5072502;28;1595;-33
2022/02/16 02:03:09;;;;;;;;;;;;;;;18.29;61.82;101208.34;5059353;28;1648;-33
2022/02/16 02:05:45;;;;;;;;;;;;;;;18.24;62.32;101198.97;5060784;28;1386;-32
2022/02/16 02:10:56;;;;;;;;;;;;;;;18.23;61.93;101207.97;5071091;28;1816;-32
2022/02/16 02:13:23;;;;;;;;;;;;;;;18.19;62.43;101185.94;5080380;28;1902;-32
2022/02/16 02:15:50;;;;;;;;;;;;;;;18.18;62.00;101186.06;5088589;28;1614;-33
2022/02/16 02:18:18;;;;;;;;;;;;;;;18.17;62.29;101179.88;5087928;28;1818;-33
2022/02/16 02:20:48;;;;;;;;;;;;;;;18.16;62.23;101164.75;5090213;28;1069;-33
2022/02/16 02:23:29;;;;;;;;;;;;;;;18.18;62.12;101173.53;5088530;28;1778;-33
2022/02/16 02:25:58;;;;;;;;;;;;;;;18.19;62.10;101166.38;5090676;28;2071;-33
2022/02/16 02:28:25;;;;;;;;;;;;;;;18.20;61.84;101171.56;5079635;28;1755;-33
2022/02/16 02:30:54;;;;;;;;;;;;;;;18.22;62.23;101179.50;5067343;28;1417;-33
2022/02/16 02:33:21;;;;;;;;;;;;;;;18.21;62.17;101173.28;5079660;28;1971;-33
2022/02/16 02:35:49;;;;;;;;;;;;;;;18.18;62.21;101168.16;5078263;28;1434;-32
2022/02/16 02:38:18;;;;;;;;;;;;;;;18.23;61.86;101166.00;5086755;28;1278;-33
2022/02/16 02:40:44;;;;;;;;;;;;;;;18.24;62.06;101189.13;5085808;28;1611;-35
2022/02/16 02:43:13;;;;;;;;;;;;;;;18.22;62.34;101185.72;5085468;28;1502;-33
2022/02/16 02:45:39;;;;;;;;;;;;;;;18.20;61.92;101176.94;5064046;28;1992;-32
2022/02/16 02:48:06;;;;;;;;;;;;;;;18.21;61.87;101186.69;5094208;28;1078;-32
2022/02/16 02:50:35;;;;;;;;;;;;;;;18.18;62.15;101170.84;5087723;28;1656;-33
2022/02/16 02:53:07;;;;;;;;;;;;;;;18.17;61.64;101181.69;5089692;28;1971;-33
2022/02/16 02:55:39;;;;;;;;;;;;;;;18.13;61.51;101181.06;5092040;28;1854;-33
2022/02/16 02:58:06;;;;;;;;;;;;;;;18.14;61.64;101185.44;5070877;28;1406;-33
2022/02/16 03:03:45;;;;;;;;;;;;;;;18.11;61.38;101177.66;5044870;28;1727;-33
2022/02/16 03:06:11;;;;;;;;;;;;;;;18.08;61.60;101172.53;5044338;28;1809;-33
2022/02/16 03:08:43;;;;;;;;;;;;;;;18.12;61.66;101173.16;5034889;28;1941;-33
2022/02/16 03:11:19;;;;;;;;;;;;;;;18.17;61.84;101182.53;5042034;28;1655;-32
2022/02/16 03:13:46;;;;;;;;;;;;;;;18.14;61.64;101188.13;5043286;28;1906;-32
2022/02/16 03:16:15;;;;;;;;;;;;;;;18.15;61.41;101179.13;5042290;28;1608;-33
2022/02/16 03:18:43;;;;;;;;;;;;;;;18.14;61.52;101177.41;5036728;28;1645;-32
2022/02/16 03:21:11;;;;;;;;;;;;;;;18.12;61.57;101189.22;5047472;28;1071;-33
2022/02/16 03:23:37;;;;;;;;;;;;;;;18.10;61.40;101178.63;5054908;28;1939;-32
2022/02/16 03:26:16;;;;;;;;;;;;;;;18.06;61.59;101183.38;5042792;28;1757;-33
2022/02/16 03:28:45;;;;;;;;;;;;;;;18.07;61.49;101173.53;5051002;28;1534;-32
2022/02/16 03:31:12;;;;;;;;;;;;;;;18.07;61.44;101178.88;5042980;28;1458;-32
2022/02/16 03:33:39;;;;;;;;;;;;;;;18.06;61.63;101172.69;5048381;28;1975;-33
2022/02/16 03:36:06;;;;;;;;;;;;;;;18.09;61.52;101184.97;5038765;28;1814;-32
2022/02/16 03:38:36;;;;;;;;;;;;;;;18.07;61.31;101176.19;5045223;28;1334;-33
2022/02/16 03:41:03;;;;;;;;;;;;;;;18.05;61.53;101188.84;5039778;28;1598;-33
2022/02/16 03:43:33;;;;;;;;;;;;;;;18.09;61.58;101184.97;5051281;28;1101;-32
2022/02/16 03:46:02;;;;;;;;;;;;;;;18.13;61.13;101188.25;5039883;28;1722;-33
2022/02/16 03:48:33;;;;;;;;;;;;;;;18.09;61.34;101169.75;5043699;28;1843;-32
2022/02/16 03:50:59;;;;;;;;;;;;;;;18.13;61.27;101180.22;5044049;28;1395;-33
2022/02/16 03:53:28;;;;;;;;;;;;;;;18.13;61.24;101169.53;5040387;28;1968;-32
2022/02/16 03:55:57;;;;;;;;;;;;;;;18.13;61.19;101181.06;5046254;28;1441;-33
2022/02/16 03:58:25;;;;;;;;;;;;;;;18.16;61.23;101191.53;5049085;28;1095;-33
2022/02/16 04:00:55;;;;;;;;;;;;;;;18.12;61.15;101174.00;5052254;28;1719;-33
2022/02/16 04:03:25;;;;;;;;;;;;;;;18.11;61.34;101174.16;5040269;28;1738;-32
2022/02/16 04:05:54;;;;;;;;;;;;;;;18.10;61.09;101173.28;5049898;28;1518;-33
2022/02/16 04:08:22;;;;;;;;;;;;;;;18.07;61.10;101189.59;5054717;28;1624;-33
2022/02/16 04:10:51;;;;;;;;;;;;;;;18.05;61.24;101175.47;5044037;28;1765;-32
2022/02/16 04:13:21;;;;;;;;;;;;;;;18.03;61.15;101172.06;5042008;28;1977;-32
2022/02/16 04:15:51;;;;;;;;;;;;;;;18.05;60.95;101175.47;5050719;28;1613;-33
2022/02/16 04:18:21;;;;;;;;;;;;;;;18.06;61.02;101185.19;5043208;28;1895;-33
2022/02/16 04:20:50;;;;;;;;;;;;;;;18.05;60.86;101178.16;5044343;28;1051;-32
2022/02/16 04:23:20;;;;;;;;;;;;;;;18.02;60.99;101168.50;5039241;28;1691;-32
2022/02/16 04:25:47;;;;;;;;;;;;;;;17.98;61.06;101168.88;5047860;28;1770;-33
2022/02/16 04:28:15;;;;;;;;;;;;;;;18.02;61.06;101189.91;5033392;28;1600;-33
2022/02/16 04:30:42;;;;;;;;;;;;;;;18.05;61.01;101183.50;5043711;28;1566;-32
2022/02/16 04:33:12;;;;;;;;;;;;;;;18.00;60.51;101169.63;5048708;28;1899;-33
2022/02/16 04:35:47;;;;;;;;;;;;;;;17.97;60.86;101168.03;5040553;28;1604;-33
2022/02/16 04:38:14;;;;;;;;;;;;;;;18.03;60.80;101172.06;5046393;28;1838;-35
2022/02/16 04:40:43;;;;;;;;;;;;;;;18.03;60.90;101177.41;5039684;28;1000;-32
2022/02/16 04:43:10;;;;;;;;;;;;;;;18.07;60.78;101169.03;5040717;28;1911;-32
2022/02/16 04:45:37;;;;;;;;;;;;;;;18.05;60.73;101172.78;5036245;28;1606;-33
2022/02/16 04:48:05;;;;;;;;;;;;;;;18.05;60.93;101156.75;5045899;28;1393;-32
2022/02/16 04:50:36;;;;;;;;;;;;;;;18.06;60.47;101170.00;5043840;28;1737;-32
2022/02/16 04:53:06;;;;;;;;;;;;;;;18.12;60.67;101162.44;5048709;28;1904;-33
2022/02/16 04:55:33;;;;;;;;;;;;;;;18.04;60.47;101163.03;5037903;28;1765;-33
2022/02/16 04:58:02;;;;;;;;;;;;;;;18.06;60.64;101156.63;5046876;28;1846;-33
2022/02/16 05:00:32;;;;;;;;;;;;;;;18.07;60.44;101157.47;5043531;28;1659;-33
2022/02/16 05:02:58;;;;;;;;;;;;;;;18.11;60.16;101161.59;5043826;28;1692;-32
2022/02/16 05:05:26;;;;;;;;;;;;;;;18.11;59.89;101155.41;5045533;28;1011;-34
2022/02/16 05:07:56;;;;;;;;;;;;;;;18.14;59.98;101161.34;5042831;28;1087;-33
2022/02/16 05:10:28;;;;;;;;;;;;;;;18.14;59.98;101144.44;5051203;28;1910;-33
2022/02/16 05:12:57;;;;;;;;;;;;;;;18.09;60.11;101148.34;5050087;28;1988;-32
2022/02/16 05:15:26;;;;;;;;;;;;;;;18.08;60.10;101143.97;5039986;28;1655;-32
2022/02/16 05:17:54;;;;;;;;;;;;;;;18.08;60.24;101148.44;5029497;28;1563;-33
2022/02/16 05:20:23;;;;;;;;;;;;;;;18.04;60.16;101149.66;5047200;28;1092;-33
2022/02/16 05:22:52;;;;;;;;;;;;;;;18.10;59.65;101138.47;5051438;28;1361;-32
2022/02/16 05:25:18;;;;;;;;;;;;;;;18.12;60.06;101146.41;5042090;28;1361;-32
2022/02/16 05:27:51;;;;;;;;;;;;;;;18.25;59.27;101137.28;5033072;28;1603;-33
2022/02/16 05:30:25;;;;;;;;;;;;;;;18.71;58.73;101127.38;5027659;28;1475;-32
2022/02/16 05:32:54;;;;;;;;;;;;;;;19.50;57.68;101137.00;5036076;28;1971;-33
2022/02/16 05:35:22;;;;;;;;;;;;;;;19.85;57.44;101145.59;5044016;28;1059;-32
2022/02/16 05:37:51;;;;;;;;;;;;;;;20.02;58.40;101146.00;5044397;28;1915;-33
2022/02/16 05:40:19;;;;;;;;;;;;;;;20.22;57.47;101149.63;5040553;28;2044;-33
2022/02/16 05:42:49;;;;;;;;;;;;;;;20.11;58.12;101147.88;5037748;28;1660;-33
2022/02/16 05:45:23;;;;;;;;;;;;;;;20.14;58.54;101150.28;5033129;28;1497;-32
2022/02/16 05:47:53;;;;;;;;;;;;;;;20.16;57.12;101164.44;5030244;28;1317;-33
2022/02/16 05:50:22;;;;;;;;;;;;;;;20.14;58.14;101165.56;5028373;28;1223;-32
2022/02/16 05:52:49;;;;;;;;;;;;;;;20.22;58.03;101180.00;5032709;28;1983;-33
2022/02/16 05:55:19;;;;;;;;;;;;;;;20.13;58.38;101191.53;5039589;28;2074;-32
2022/02/16 05:57:51;;;;;;;;;;;;;;;20.23;58.05;101179.03;5031615;28;1656;-32
2022/02/16 06:00:34;;;;;;;;;;;;;;;20.20;59.08;101173.94;5032860;28;1559;-33
2022/02/16 06:03:02;;;;;;;;;;;;;;;20.14;59.02;101185.19;5029412;28;1499;-32
2022/02/16 06:05:29;;;;;;;;;;;;;;;20.08;59.67;101185.72;5028152;28;1428;-33
2022/02/16 06:07:56;;;;;;;;;;;;;;;20.08;59.68;101211.75;5039760;28;1553;-33
2022/02/16 06:10:23;;;;;;;;;;;;;;;20.10;58.24;101202.56;5039425;28;1755;-32
2022/02/16 06:12:54;;;;;;;;;;;;;;;20.19;58.31;101209.84;5030274;28;1906;-33
2022/02/16 06:15:20;;;;;;;;;;;;;;;20.03;58.33;101207.63;5034258;28;2170;-32
2022/02/16 06:17:47;;;;;;;;;;;;;;;19.96;59.17;101202.91;5036066;28;1378;-32
2022/02/16 06:20:14;;;;;;;;;;;;;;;19.98;58.55;101203.63;5040388;28;1387;-32
2022/02/16 06:22:42;;;;;;;;;;;;;;;20.02;59.53;101191.63;5033114;28;1603;-33
2022/02/16 06:25:10;;;;;;;;;;;;;;;19.98;58.50;101199.09;5035431;28;1489;-33
2022/02/16 06:27:37;;;;;;;;;;;;;;;19.92;59.21;101196.09;5036669;28;1522;-32
2022/02/16 06:30:07;;;;;;;;;;;;;;;19.78;59.93;101198.13;5039800;28;1342;-32
2022/02/16 06:32:36;;;;;;;;;;;;;;;19.73;59.18;101184.22;5039699;28;1386;-33
2022/02/16 06:35:07;;;;;;;;;;;;;;;19.63;60.46;101178.75;5040650;28;1971;-32
2022/02/16 06:37:41;;;;;;;;;;;;;;;19.68;60.67;101181.06;5037896;28;1595;-32
2022/02/16 06:40:10;;;;;;;;;;;;;;;19.70;59.55;101181.78;5035091;28;1500;-31
2022/02/16 06:42:40;;;;;;;;;;;;;;;19.74;60.72;101180.56;5040306;28;1728;-32
2022/02/16 06:45:18;;;;;;;;;;;;;;;19.79;59.09;101177.50;5032570;28;1762;-32
2022/02/16 06:47:48;;;;;;;;;;;;;;;19.73;59.42;101183.38;5036761;28;1555;-32
2022/02/16 06:50:14;;;;;;;;;;;;;;;19.70;60.20;101172.88;5041389;28;1724;-31
2022/02/16 06:52:44;;;;;;;;;;;;;;;19.72;58.95;101177.16;5037193;28;1816;-32
2022/02/16 06:55:13;;;;;;;;;;;;;;;19.67;59.63;101177.50;5043349;28;2030;-31
2022/02/16 06:57:48;;;;;;;;;;;;;;;19.83;58.66;101185.13;5045051;28;1930;-32
2022/02/16 07:00:32;;;;;;;;;;;;;;;19.79;59.79;101191.75;5032374;28;1901;-31
2022/02/16 07:03:05;;;;;;;;;;;;;;;19.66;60.13;101173.13;5024946;28;1856;-32
2022/02/16 07:05:32;;;;;;;;;;;;;;;19.71;59.21;101163.84;5039424;28;1747;-33
2022/02/16 07:08:02;;;;;;;;;;;;;;;19.68;59.17;101183.75;5036894;28;1094;-32
2022/02/16 07:10:30;;;;;;;;;;;;;;;19.74;58.91;101180.56;5040755;28;1880;-31
2022/02/16 07:12:58;;;;;;;;;;;;;;;19.71;59.03;101180.81;5038742;28;1472;-31
2022/02/16 07:15:31;;;;;;;;;;;;;;;19.65;59.83;101167.91;5047393;28;1906;-31
2022/02/16 07:18:01;;;;;;;;;;;;;;;19.73;58.70;101176.16;5047250;28;1544;-32
2022/02/16 07:20:34;;;;;;;;;;;;;;;19.71;59.50;101169.22;5042302;28;1031;-31
2022/02/16 07:23:00;;;;;;;;;;;;;;;19.75;60.01;101163.47;5037566;28;1732;-33
2022/02/16 07:25:29;;;;;;;;;;;;;;;19.71;60.71;101164.72;5034456;28;1639;-33
2022/02/16 07:27:55;;;;;;;;;;;;;;;19.67;60.78;101158.72;5037484;28;1787;-33
2022/02/16 07:30:25;;;;;;;;;;;;;;;19.68;60.87;101148.88;5041584;28;1530;-32
2022/02/16 07:32:53;;;;;;;;;;;;;;;19.70;60.65;101136.16;5040261;28;1710;-32
2022/02/16 07:35:23;;;;;;;;;;;;;;;19.73;60.04;101138.59;5020529;28;1910;-32
2022/02/16 07:37:57;;;;;;;;;;;;;;;19.83;59.04;101139.50;5033633;28;1841;-32
2022/02/16 07:40:28;;;;;;;;;;;;;;;19.85;58.80;101150.97;5036022;28;1948;-33
2022/02/16 07:42:55;;;;;;;;;;;;;;;19.81;59.21;101148.69;5032978;28;1933;-32
2022/02/16 07:48:05;;;;;;;;;;;;;;;19.72;59.64;101144.13;5029001;28;3229;-32
2022/02/16 07:50:34;;;;;;;;;;;;;;;19.86;58.38;101141.09;5042105;28;1473;-32
2022/02/16 07:53:11;;;;;;;;;;;;;;;19.91;58.76;101140.69;5035168;28;1483;-33
2022/02/16 07:55:39;;;;;;;;;;;;;;;19.83;59.40;101147.56;5035557;28;1906;-32
2022/02/16 07:58:06;;;;;;;;;;;;;;;19.89;59.14;101142.66;5036974;28;1744;-32
2022/02/16 08:00:38;;;;;;;;;;;;;;;19.95;59.35;101151.03;5031031;28;1583;-32
2022/02/16 08:03:05;;;;;;;;;;;;;;;19.99;58.20;101155.16;5034724;28;1507;-32
2022/02/16 08:08:27;;;;;;;;;;;;;;;19.98;58.36;101147.25;5037177;28;2385;-33
2022/02/16 08:10:53;;;;;;;;;;;;;;;19.95;58.30;101145.66;5031677;28;1832;-32
2022/02/16 08:13:22;;;;;;;;;;;;;;;19.92;58.61;101145.09;5036935;28;1486;-33
2022/02/16 08:15:51;;;;;;;;;;;;;;;19.87;59.73;101132.06;5034160;28;1966;-32
2022/02/16 08:18:18;;;;;;;;;;;;;;;19.97;58.43;101137.47;5037735;28;1772;-33
2022/02/16 08:20:49;;;;;;;;;;;;;;;19.94;59.38;101127.03;5034747;28;1943;-33
2022/02/16 08:23:30;;;;;;;;;;;;;;;19.89;58.44;101129.25;5035720;28;1702;-32
2022/02/16 08:25:59;;;;;;;;;;;;;;;19.98;59.66;101125.78;5047256;28;1998;-33
2022/02/16 08:28:26;;;;;;;;;;;;;;;19.93;59.38;101122.63;5044014;28;1515;-33
2022/02/16 08:30:56;;;;;;;;;;;;;;;20.02;58.31;101130.72;5037330;28;1686;-32
2022/02/16 08:33:22;;;;;;;;;;;;;;;19.95;58.86;101118.81;5038872;28;1877;-32
2022/02/16 08:35:49;;;;;;;;;;;;;;;19.93;58.90;101128.00;5038141;28;2020;-32
2022/02/16 08:38:27;;;;;;;;;;;;;;;19.91;59.35;101117.38;5035653;28;1375;-32
2022/02/16 08:40:57;;;;;;;;;;;;;;;19.93;58.75;101117.25;5038168;28;2092;-33
2022/02/16 08:43:25;;;;;;;;;;;;;;;19.99;58.68;101114.88;5027413;28;1482;-33
2022/02/16 08:45:52;;;;;;;;;;;;;;;19.99;59.63;101114.03;5033226;28;1521;-33
2022/02/16 08:48:23;;;;;;;;;;;;;;;20.08;58.63;101118.63;5027807;28;1601;-33
2022/02/16 08:50:52;;;;;;;;;;;;;;;19.60;57.93;101124.53;5037129;28;1682;-34
2022/02/16 08:53:22;;;;;;;;;;;;;;;19.63;57.44;101113.50;5038280;28;1542;-33
2022/02/16 08:55:49;;;;;;;;;;;;;;;19.67;56.68;101117.63;5038881;28;1985;-32
2022/02/16 08:58:17;;;;;;;;;;;;;;;19.75;57.03;101115.19;5036359;28;1548;-32
2022/02/16 09:00:44;;;;;;;;;;;;;;;19.82;57.70;101134.31;5038262;28;2027;-32
2022/02/16 09:03:14;;;;;;;;;;;;;;;19.81;57.83;101105.75;5036102;28;1708;-33
2022/02/16 09:05:41;;;;;;;;;;;;;;;19.79;57.35;101108.56;5025914;28;1749;-33
2022/02/16 09:08:10;;;;;;;;;;;;;;;19.82;57.28;101096.72;5040751;28;1565;-32
2022/02/16 09:10:40;;;;;;;;;;;;;;;19.83;58.24;101103.78;5031378;28;1567;-32
2022/02/16 09:13:10;;;;;;;;;;;;;;;19.83;58.04;101111.84;5038861;28;1893;-32
2022/02/16 09:15:37;;;;;;;;;;;;;;;19.86;57.59;101103.53;5024993;28;1902;-33
2022/02/16 09:18:05;;;;;;;;;;;;;;;19.88;57.18;101095.34;5032142;28;2309;-32
2022/02/16 09:20:32;;;;;;;;;;;;;;;19.82;58.08;101108.31;5049192;28;1008;-33
2022/02/16 09:23:02;;;;;;;;;;;;;;;19.82;57.70;101092.22;5049888;28;1823;-32
2022/02/16 09:25:31;;;;;;;;;;;;;;;19.83;57.70;101099.25;5044733;28;1619;-32
2022/02/16 09:30:48;;;;;;;;;;;;;;;19.97;56.90;101097.22;5030606;28;1745;-32
2022/02/16 09:33:16;;;;;;;;;;;;;;;19.96;56.90;101092.84;5039693;28;1692;-32
2022/02/16 09:35:45;;;;;;;;;;;;;;;19.94;57.65;101071.50;5033885;28;2069;-32
2022/02/16 09:38:13;;;;;;;;;;;;;;;20.03;56.34;101076.06;5043162;28;1658;-33
2022/02/16 09:40:45;;;;;;;;;;;;;;;20.14;57.58;101085.00;5032767;28;1702;-32
2022/02/16 09:43:19;;;;;;;;;;;;;;;20.09;56.65;101066.59;5044276;28;1165;-32
2022/02/16 09:45:46;;;;;;;;;;;;;;;20.06;56.82;101075.78;5034146;28;2021;-32
2022/02/16 09:48:15;;;;;;;;;;;;;;;20.10;57.11;101068.31;5038811;28;1781;-33
2022/02/16 09:50:45;;;;;;;;;;;;;;;20.00;57.77;101051.31;5044626;28;1678;-32
2022/02/16 09:53:14;;;;;;;;;;;;;;;20.00;56.87;101062.06;5038325;28;1622;-33
2022/02/16 09:55:41;;;;;;;;;;;;;;;19.94;58.33;101057.25;5051221;28;1910;-33
2022/02/16 09:58:10;;;;;;;;;;;;;;;19.95;58.10;101053.56;5028583;28;1719;-32
2022/02/16 10:01:03;;;;;;;;;;;;;;;19.95;58.62;101038.28;5038202;28;1599;-32
2022/02/16 10:03:32;;;;;;;;;;;;;;;19.98;59.00;101034.50;5037122;28;1766;-33
2022/02/16 10:06:02;;;;;;;;;;;;;;;19.96;58.79;101013.16;5050349;28;1850;-33
2022/02/16 10:08:42;;;;;;;;;;;;;;;19.97;58.87;101009.47;5041756;28;1773;-33
2022/02/16 10:11:09;;;;;;;;;;;;;;;20.05;55.82;101007.00;5040097;28;1937;-32
2022/02/16 10:13:53;;;;;;;;;;;;;;;20.25;53.93;101036.56;5045811;28;1791;-33
2022/02/16 10:16:37;;;;;;;;;;;;;;;20.33;54.24;101003.66;5044493;28;1902;-32
2022/02/16 10:19:18;;;;;;;;;;;;;;;20.26;52.93;100998.00;5039273;28;1955;-32
2022/02/16 10:22:05;;;;;;;;;;;;;;;20.27;54.03;101011.28;5032981;28;1826;-32
2022/02/16 10:24:32;;;;;;;;;;;;;;;20.24;54.19;101011.53;5036695;28;1142;-32
2022/02/16 10:27:05;;;;;;;;;;;;;;;20.19;52.81;101005.75;5036050;28;1963;-33
2022/02/16 10:29:40;;;;;;;;;;;;;;;20.25;53.43;100996.28;5034967;28;1757;-33
2022/02/16 10:32:13;;;;;;;;;;;;;;;20.29;53.24;100983.44;5036571;28;1935;-33
2022/02/16 10:34:48;;;;;;;;;;;;;;;20.37;54.43;100987.13;5036490;28;1910;-33
2022/02/16 10:37:21;;;;;;;;;;;;;;;20.36;54.26;100972.00;5040535;28;1261;-33
2022/02/16 10:40:00;;;;;;;;;;;;;;;20.43;54.31;100967.78;5038051;28;1269;-32
2022/02/16 10:42:30;;;;;;;;;;;;;;;20.42;54.73;100962.53;5041880;28;2017;-33
2022/02/16 10:45:06;;;;;;;;;;;;;;;20.48;55.11;100964.66;5030526;28;1001;-33
2022/02/16 10:47:54;;;;;;;;;;;;;;;20.43;56.10;100961.53;5039564;28;1509;-33
2022/02/16 10:53:16;;;;;;;;;;;;;;;20.36;56.11;100952.34;5031582;28;2051;-33
2022/02/16 10:55:45;;;;;;;;;;;;;;;20.33;56.07;100941.88;5036312;28;1906;-35
2022/02/16 10:58:14;;;;;;;;;;;;;;;20.43;56.10;100945.41;5042307;28;1108;-33
2022/02/16 11:00:41;;;;;;;;;;;;;;;20.42;56.65;100947.25;5038726;28;1670;-32
2022/02/16 11:03:28;;;;;;;;;;;;;;;20.40;56.28;100925.06;5036959;28;1555;-32
2022/02/16 11:06:07;;;;;;;;;;;;;;;20.42;55.93;100938.34;5031428;28;1459;-33
2022/02/16 11:08:38;;;;;;;;;;;;;;;20.48;55.84;100932.41;5035453;28;1902;-33
2022/02/16 11:11:20;;;;;;;;;;;;;;;20.36;54.83;100938.91;5037811;28;1769;-32
2022/02/16 11:13:50;;;;;;;;;;;;;;;20.30;54.37;100928.75;5035398;28;1324;-32
2022/02/16 11:16:20;;;;;;;;;;;;;;;20.18;52.99;100926.19;5040411;28;1980;-32
2022/02/16 11:18:48;;;;;;;;;;;;;;;20.11;53.29;100930.41;5037871;28;1969;-32
2022/02/16 11:21:20;;;;;;;;;;;;;;;20.15;53.38;100910.31;5035567;28;1375;-33
2022/02/16 11:23:47;;;;;;;;;;;;;;;20.20;54.46;100916.16;5032564;28;1578;-33
2022/02/16 11:26:34;;;;;;;;;;;;;;;20.22;53.12;100914.16;5037320;28;1498;-33
2022/02/16 11:29:15;;;;;;;;;;;;;;;20.23;52.08;100915.00;5042045;28;1548;-32
2022/02/16 11:31:44;;;;;;;;;;;;;;;20.09;51.50;100904.69;5042551;28;1636;-33
2022/02/16 11:34:17;;;;;;;;;;;;;;;20.06;51.88;100901.28;5034402;28;1712;-33
2022/02/16 11:36:59;;;;;;;;;;;;;;;20.00;53.13;100901.84;5047887;28;1966;-34
2022/02/16 11:39:50;;;;;;;;;;;;;;;19.98;52.85;100902.97;5043982;28;1690;-34
2022/02/16 11:45:02;;;;;;;;;;;;;;;19.91;52.68;100885.72;5041373;28;2101;-33
2022/02/16 11:48:02;;;;;;;;;;;;;;;19.80;50.72;100882.19;5038819;28;1494;-34
2022/02/16 11:50:37;;;;;;;;;;;;;;;19.75;51.25;100878.22;4981192;28;1784;-33
2022/02/16 11:53:07;;;;;;;;;;;;;;;19.69;50.29;100876.88;4980899;28;1832;-34
2022/02/16 11:55:37;;;;;;;;;;;;;;;19.69;51.52;100884.94;5008313;28;1906;-34
2022/02/16 11:58:23;;;;;;;;;;;;;;;19.70;50.15;100875.91;5041287;28;1921;-34
2022/02/16 12:00:58;;;;;;;;;;;;;;;19.74;50.69;100873.84;5050046;28;1695;-33
2022/02/16 12:03:28;;;;;;;;;;;;;;;19.69;50.51;100860.78;5038941;28;1477;-33
2022/02/16 12:05:59;;;;;;;;;;;;;;;19.72;49.28;100859.72;5032338;28;1632;-34
2022/02/16 12:08:29;;;;;;;;;;;;;;;19.96;50.00;100857.47;5026529;28;1654;-33
2022/02/16 12:11:08;;;;;;;;;;;;;;;19.88;50.32;100859.19;5042296;28;1139;-34
2022/02/16 12:13:38;;;;;;;;;;;;;;;19.94;49.80;100845.19;5038618;28;1749;-34
2022/02/16 12:16:07;;;;;;;;;;;;;;;19.92;49.90;100857.91;5043708;28;1973;-34
2022/02/16 12:18:34;;;;;;;;;;;;;;;19.92;49.11;100855.22;5040600;28;1605;-33
2022/02/16 12:21:03;;;;;;;;;;;;;;;19.80;49.17;100852.66;5038723;28;1071;-33
2022/02/16 12:23:35;;;;;;;;;;;;;;;19.84;50.13;100854.06;5039653;28;1907;-33
2022/02/16 12:26:05;;;;;;;;;;;;;;;19.81;50.02;100851.66;5039000;28;1692;-34
2022/02/16 12:28:45;;;;;;;;;;;;;;;19.80;49.05;100833.03;5035265;28;1682;-33
2022/02/16 12:31:15;;;;;;;;;;;;;;;19.75;48.84;100843.31;5042372;28;1933;-34
2022/02/16 12:33:44;;;;;;;;;;;;;;;19.85;49.05;100833.44;5051068;28;1917;-34
2022/02/16 12:36:11;;;;;;;;;;;;;;;19.97;49.73;100826.13;5042979;28;1910;-33
2022/02/16 12:38:46;;;;;;;;;;;;;;;20.06;48.71;100831.50;5042564;28;1781;-34
2022/02/16 12:41:15;;;;;;;;;;;;;;;20.32;48.45;100830.94;5045630;28;1785;-33
2022/02/16 12:43:50;;;;;;;;;;;;;;;20.48;48.44;100834.88;5050841;28;1941;-34
2022/02/16 12:46:19;;;;;;;;;;;;;;;20.51;49.11;100818.44;5045127;28;1813;-33
2022/02/16 12:48:48;;;;;;;;;;;;;;;20.59;49.22;100816.78;5046254;28;1783;-34
2022/02/16 12:51:48;;;;;;;;;;;;;;;20.57;49.06;100821.44;5035448;28;1617;-33
2022/02/16 12:54:21;;;;;;;;;;;;;;;20.46;49.63;100811.66;5028311;28;1676;-34
2022/02/16 12:56:49;;;;;;;;;;;;;;;20.48;50.08;100792.72;5039233;28;1978;-33
2022/02/16 12:59:23;;;;;;;;;;;;;;;20.45;50.07;100809.13;5054589;28;1091;-34
2022/02/16 13:01:54;;;;;;;;;;;;;;;20.46;50.50;100816.19;5046677;28;1934;-33
2022/02/16 13:04:31;;;;;;;;;;;;;;;20.41;50.62;100802.34;5047844;28;1819;-34
2022/02/16 13:07:00;;;;;;;;;;;;;;;20.32;50.83;100806.75;5048937;28;1763;-33
2022/02/16 13:09:34;;;;;;;;;;;;;;;20.31;51.65;100791.63;5046133;28;1267;-33
2022/02/16 13:12:05;;;;;;;;;;;;;;;20.20;53.72;100789.94;5041572;28;1609;-34
2022/02/16 13:14:34;;;;;;;;;;;;;;;20.18;54.14;100788.41;5054617;28;1042;-34
2022/02/16 13:17:12;;;;;;;;;;;;;;;20.30;54.27;100783.72;5042927;28;2039;-32
2022/02/16 13:19:56;;;;;;;;;;;;;;;20.28;53.30;100799.97;5039047;28;1582;-33
2022/02/16 13:22:23;;;;;;;;;;;;;;;20.15;54.27;100789.50;5017364;28;1946;-33
2022/02/16 13:25:03;;;;;;;;;;;;;;;20.11;53.67;100777.38;5051617;28;1809;-33
2022/02/16 13:27:44;;;;;;;;;;;;;;;20.31;53.51;100766.59;5036646;28;1859;-34